sensor_id;sensor_type;location;lat;lon;timestamp;P1;durP1;ratioP1;P2;durP2;ratioP2
20056;SDS011;10189;49.546;7.906;2023-04-06T00:02:14;11.57;;;8.43;;
20056;SDS011;10189;49.546;7.906;2023-04-06T00:04:40;13.48;;;9.70;;
20056;SDS011;10189;49.546;7.906;2023-04-06T00:07:06;10.60;;;8.07;;
20056;SDS011;10189;49.546;7.906;2023-04-06T00:09:32;12.82;;;8.50;;
20056;SDS011;10189;49.546;7.906;2023-04-06T00:11:58;12.77;;;9.60;;
20056;SDS011;10189;49.546;7.906;2023-04-06T00:14:24;12.88;;;8.70;;
20056;SDS011;10189;49.546;7.906;2023-04-06T00:16:50;15.05;;;9.82;;
20056;SDS011;10189;49.546;7.906;2023-04-06T00:19:16;12.70;;;9.38;;
20056;SDS011;10189;49.546;7.906;2023-04-06T00:21:41;15.40;;;10.00;;
20056;SDS011;10189;49.546;7.906;2023-04-06T00:24:07;16.02;;;9.75;;
20056;SDS011;10189;49.546;7.906;2023-04-06T00:26:33;13.75;;;8.70;;
20056;SDS011;10189;49.546;7.906;2023-04-06T00:29:00;12.05;;;8.57;;
20056;SDS011;10189;49.546;7.906;2023-04-06T00:31:26;11.05;;;8.23;;
20056;SDS011;10189;49.546;7.906;2023-04-06T00:33:52;12.85;;;8.88;;
20056;SDS011;10189;49.546;7.906;2023-04-06T00:36:17;15.63;;;9.95;;
20056;SDS011;10189;49.546;7.906;2023-04-06T00:38:43;12.48;;;8.50;;
20056;SDS011;10189;49.546;7.906;2023-04-06T00:41:10;12.00;;;8.32;;
20056;SDS011;10189;49.546;7.906;2023-04-06T00:43:36;11.80;;;8.60;;
20056;SDS011;10189;49.546;7.906;2023-04-06T00:46:02;13.13;;;8.82;;
20056;SDS011;10189;49.546;7.906;2023-04-06T00:48:28;12.35;;;8.88;;
20056;SDS011;10189;49.546;7.906;2023-04-06T00:50:55;12.07;;;8.75;;
20056;SDS011;10189;49.546;7.906;2023-04-06T00:53:23;13.27;;;8.85;;
20056;SDS011;10189;49.546;7.906;2023-04-06T00:55:50;11.10;;;8.20;;
20056;SDS011;10189;49.546;7.906;2023-04-06T00:58:16;13.00;;;8.95;;
20056;SDS011;10189;49.546;7.906;2023-04-06T01:00:48;12.63;;;9.23;;
20056;SDS011;10189;49.546;7.906;2023-04-06T01:03:17;12.93;;;8.20;;
20056;SDS011;10189;49.546;7.906;2023-04-06T01:05:43;13.20;;;9.05;;
20056;SDS011;10189;49.546;7.906;2023-04-06T01:08:17;13.52;;;8.07;;
20056;SDS011;10189;49.546;7.906;2023-04-06T01:10:44;10.80;;;8.07;;
20056;SDS011;10189;49.546;7.906;2023-04-06T01:13:20;11.45;;;8.38;;
20056;SDS011;10189;49.546;7.906;2023-04-06T01:15:53;12.43;;;8.25;;
20056;SDS011;10189;49.546;7.906;2023-04-06T01:18:31;13.80;;;8.88;;
20056;SDS011;10189;49.546;7.906;2023-04-06T01:21:11;8.43;;;5.68;;
20056;SDS011;10189;49.546;7.906;2023-04-06T01:23:46;12.75;;;8.50;;
20056;SDS011;10189;49.546;7.906;2023-04-06T01:26:16;10.90;;;7.33;;
20056;SDS011;10189;49.546;7.906;2023-04-06T01:28:42;11.50;;;8.15;;
20056;SDS011;10189;49.546;7.906;2023-04-06T01:31:21;11.95;;;8.52;;
20056;SDS011;10189;49.546;7.906;2023-04-06T01:33:50;10.50;;;8.13;;
20056;SDS011;10189;49.546;7.906;2023-04-06T01:36:19;12.45;;;8.30;;
20056;SDS011;10189;49.546;7.906;2023-04-06T01:38:52;12.57;;;8.35;;
20056;SDS011;10189;49.546;7.906;2023-04-06T01:41:22;11.10;;;8.00;;
20056;SDS011;10189;49.546;7.906;2023-04-06T01:43:51;11.02;;;7.95;;
20056;SDS011;10189;49.546;7.906;2023-04-06T01:46:22;11.70;;;8.13;;
20056;SDS011;10189;49.546;7.906;2023-04-06T01:48:48;12.45;;;7.97;;
20056;SDS011;10189;49.546;7.906;2023-04-06T01:51:29;11.95;;;7.90;;
20056;SDS011;10189;49.546;7.906;2023-04-06T01:54:01;10.35;;;7.80;;
20056;SDS011;10189;49.546;7.906;2023-04-06T01:56:42;11.18;;;8.05;;
20056;SDS011;10189;49.546;7.906;2023-04-06T01:59:25;10.73;;;8.00;;
20056;SDS011;10189;49.546;7.906;2023-04-06T02:01:53;13.38;;;8.40;;
20056;SDS011;10189;49.546;7.906;2023-04-06T02:04:19;10.70;;;8.00;;
20056;SDS011;10189;49.546;7.906;2023-04-06T02:06:51;11.38;;;8.48;;
20056;SDS011;10189;49.546;7.906;2023-04-06T02:09:21;12.75;;;8.35;;
20056;SDS011;10189;49.546;7.906;2023-04-06T02:11:47;12.73;;;8.93;;
20056;SDS011;10189;49.546;7.906;2023-04-06T02:14:13;12.43;;;8.43;;
20056;SDS011;10189;49.546;7.906;2023-04-06T02:16:46;12.32;;;8.95;;
20056;SDS011;10189;49.546;7.906;2023-04-06T02:19:12;11.27;;;8.40;;
20056;SDS011;10189;49.546;7.906;2023-04-06T02:21:38;12.70;;;8.65;;
20056;SDS011;10189;49.546;7.906;2023-04-06T02:24:04;11.15;;;8.18;;
20056;SDS011;10189;49.546;7.906;2023-04-06T02:26:30;11.02;;;8.43;;
20056;SDS011;10189;49.546;7.906;2023-04-06T02:28:56;13.13;;;8.80;;
20056;SDS011;10189;49.546;7.906;2023-04-06T02:31:22;13.18;;;9.50;;
20056;SDS011;10189;49.546;7.906;2023-04-06T02:33:49;13.57;;;8.38;;
20056;SDS011;10189;49.546;7.906;2023-04-06T02:36:16;12.48;;;8.88;;
20056;SDS011;10189;49.546;7.906;2023-04-06T02:38:42;12.20;;;8.40;;
20056;SDS011;10189;49.546;7.906;2023-04-06T02:41:09;14.45;;;9.20;;
20056;SDS011;10189;49.546;7.906;2023-04-06T02:43:36;12.88;;;9.18;;
20056;SDS011;10189;49.546;7.906;2023-04-06T02:46:19;13.50;;;9.73;;
20056;SDS011;10189;49.546;7.906;2023-04-06T02:48:46;13.85;;;9.68;;
20056;SDS011;10189;49.546;7.906;2023-04-06T02:51:13;14.18;;;9.73;;
20056;SDS011;10189;49.546;7.906;2023-04-06T02:53:42;17.30;;;10.50;;
20056;SDS011;10189;49.546;7.906;2023-04-06T02:56:08;15.38;;;10.43;;
20056;SDS011;10189;49.546;7.906;2023-04-06T02:58:46;13.90;;;10.57;;
20056;SDS011;10189;49.546;7.906;2023-04-06T03:01:12;17.48;;;10.80;;
20056;SDS011;10189;49.546;7.906;2023-04-06T03:03:40;14.38;;;10.50;;
20056;SDS011;10189;49.546;7.906;2023-04-06T03:06:12;14.40;;;10.32;;
20056;SDS011;10189;49.546;7.906;2023-04-06T03:08:39;15.23;;;10.25;;
20056;SDS011;10189;49.546;7.906;2023-04-06T03:11:05;15.27;;;10.75;;
20056;SDS011;10189;49.546;7.906;2023-04-06T03:13:37;17.33;;;11.80;;
20056;SDS011;10189;49.546;7.906;2023-04-06T03:16:06;16.20;;;10.95;;
20056;SDS011;10189;49.546;7.906;2023-04-06T03:18:33;15.95;;;10.68;;
20056;SDS011;10189;49.546;7.906;2023-04-06T03:20:59;16.13;;;10.93;;
20056;SDS011;10189;49.546;7.906;2023-04-06T03:23:42;16.52;;;10.48;;
20056;SDS011;10189;49.546;7.906;2023-04-06T03:26:08;13.82;;;10.25;;
20056;SDS011;10189;49.546;7.906;2023-04-06T03:28:35;16.17;;;10.57;;
20056;SDS011;10189;49.546;7.906;2023-04-06T03:31:03;16.05;;;10.63;;
20056;SDS011;10189;49.546;7.906;2023-04-06T03:33:42;14.38;;;9.73;;
20056;SDS011;10189;49.546;7.906;2023-04-06T03:36:13;14.80;;;9.90;;
20056;SDS011;10189;49.546;7.906;2023-04-06T03:38:42;12.38;;;9.48;;
20056;SDS011;10189;49.546;7.906;2023-04-06T03:41:11;13.88;;;10.40;;
20056;SDS011;10189;49.546;7.906;2023-04-06T03:43:39;16.05;;;11.35;;
20056;SDS011;10189;49.546;7.906;2023-04-06T03:46:05;15.20;;;10.70;;
20056;SDS011;10189;49.546;7.906;2023-04-06T03:48:31;17.80;;;12.10;;
20056;SDS011;10189;49.546;7.906;2023-04-06T03:51:02;17.58;;;11.00;;
20056;SDS011;10189;49.546;7.906;2023-04-06T03:53:28;18.70;;;11.05;;
20056;SDS011;10189;49.546;7.906;2023-04-06T03:55:53;14.90;;;10.35;;
20056;SDS011;10189;49.546;7.906;2023-04-06T03:58:19;13.35;;;9.80;;
20056;SDS011;10189;49.546;7.906;2023-04-06T04:00:45;15.80;;;11.25;;
20056;SDS011;10189;49.546;7.906;2023-04-06T04:03:11;17.20;;;11.23;;
20056;SDS011;10189;49.546;7.906;2023-04-06T04:05:37;19.05;;;11.48;;
20056;SDS011;10189;49.546;7.906;2023-04-06T04:08:03;18.40;;;10.50;;
20056;SDS011;10189;49.546;7.906;2023-04-06T04:10:30;15.63;;;10.07;;
20056;SDS011;10189;49.546;7.906;2023-04-06T04:12:56;15.93;;;10.73;;
20056;SDS011;10189;49.546;7.906;2023-04-06T04:15:22;15.43;;;11.40;;
20056;SDS011;10189;49.546;7.906;2023-04-06T04:17:48;18.02;;;11.90;;
20056;SDS011;10189;49.546;7.906;2023-04-06T04:20:15;15.85;;;11.45;;
20056;SDS011;10189;49.546;7.906;2023-04-06T04:22:41;18.05;;;11.15;;
20056;SDS011;10189;49.546;7.906;2023-04-06T04:25:09;17.38;;;12.38;;
20056;SDS011;10189;49.546;7.906;2023-04-06T04:27:40;18.30;;;12.68;;
20056;SDS011;10189;49.546;7.906;2023-04-06T04:30:06;16.17;;;11.93;;
20056;SDS011;10189;49.546;7.906;2023-04-06T04:32:33;18.30;;;12.20;;
20056;SDS011;10189;49.546;7.906;2023-04-06T04:35:01;16.65;;;12.00;;
20056;SDS011;10189;49.546;7.906;2023-04-06T04:37:35;17.42;;;12.10;;
20056;SDS011;10189;49.546;7.906;2023-04-06T04:40:02;20.48;;;14.07;;
20056;SDS011;10189;49.546;7.906;2023-04-06T04:42:34;20.15;;;13.32;;
20056;SDS011;10189;49.546;7.906;2023-04-06T04:45:01;19.23;;;13.35;;
20056;SDS011;10189;49.546;7.906;2023-04-06T04:47:35;29.30;;;19.50;;
20056;SDS011;10189;49.546;7.906;2023-04-06T04:50:02;93.13;;;48.97;;
20056;SDS011;10189;49.546;7.906;2023-04-06T04:52:29;27.98;;;18.88;;
20056;SDS011;10189;49.546;7.906;2023-04-06T04:55:10;94.30;;;43.78;;
20056;SDS011;10189;49.546;7.906;2023-04-06T04:57:35;183.35;;;83.68;;
20056;SDS011;10189;49.546;7.906;2023-04-06T05:00:04;255.73;;;109.32;;
20056;SDS011;10189;49.546;7.906;2023-04-06T05:02:33;25.38;;;16.42;;
20056;SDS011;10189;49.546;7.906;2023-04-06T05:05:20;32.15;;;17.75;;
20056;SDS011;10189;49.546;7.906;2023-04-06T05:07:46;50.92;;;29.17;;
20056;SDS011;10189;49.546;7.906;2023-04-06T05:10:23;22.98;;;16.98;;
20056;SDS011;10189;49.546;7.906;2023-04-06T05:15:20;28.67;;;19.48;;
20056;SDS011;10189;49.546;7.906;2023-04-06T05:17:48;26.73;;;19.15;;
20056;SDS011;10189;49.546;7.906;2023-04-06T05:20:20;23.65;;;16.83;;
20056;SDS011;10189;49.546;7.906;2023-04-06T05:22:49;21.70;;;16.30;;
20056;SDS011;10189;49.546;7.906;2023-04-06T05:25:15;21.52;;;15.23;;
20056;SDS011;10189;49.546;7.906;2023-04-06T05:27:41;19.98;;;14.25;;
20056;SDS011;10189;49.546;7.906;2023-04-06T05:30:21;20.13;;;14.02;;
20056;SDS011;10189;49.546;7.906;2023-04-06T05:32:48;21.95;;;14.48;;
20056;SDS011;10189;49.546;7.906;2023-04-06T05:35:15;22.17;;;14.50;;
20056;SDS011;10189;49.546;7.906;2023-04-06T05:40:12;20.63;;;14.65;;
20056;SDS011;10189;49.546;7.906;2023-04-06T05:42:38;21.70;;;15.75;;
20056;SDS011;10189;49.546;7.906;2023-04-06T05:45:08;26.40;;;19.97;;
20056;SDS011;10189;49.546;7.906;2023-04-06T05:47:42;22.55;;;16.88;;
20056;SDS011;10189;49.546;7.906;2023-04-06T05:50:18;21.88;;;14.93;;
20056;SDS011;10189;49.546;7.906;2023-04-06T05:52:44;37.22;;;26.75;;
20056;SDS011;10189;49.546;7.906;2023-04-06T05:55:13;31.40;;;22.50;;
20056;SDS011;10189;49.546;7.906;2023-04-06T05:57:43;35.03;;;24.17;;
20056;SDS011;10189;49.546;7.906;2023-04-06T06:00:13;37.83;;;25.53;;
20056;SDS011;10189;49.546;7.906;2023-04-06T06:02:47;47.65;;;31.85;;
20056;SDS011;10189;49.546;7.906;2023-04-06T06:05:18;38.88;;;26.40;;
20056;SDS011;10189;49.546;7.906;2023-04-06T06:07:45;33.88;;;23.95;;
20056;SDS011;10189;49.546;7.906;2023-04-06T06:10:11;29.13;;;21.27;;
20056;SDS011;10189;49.546;7.906;2023-04-06T06:12:37;21.23;;;16.55;;
20056;SDS011;10189;49.546;7.906;2023-04-06T06:15:04;32.83;;;22.17;;
20056;SDS011;10189;49.546;7.906;2023-04-06T06:17:35;79.03;;;48.13;;
20056;SDS011;10189;49.546;7.906;2023-04-06T06:20:02;64.22;;;39.05;;
20056;SDS011;10189;49.546;7.906;2023-04-06T06:22:29;41.90;;;30.40;;
20056;SDS011;10189;49.546;7.906;2023-04-06T06:24:55;32.90;;;22.95;;
20056;SDS011;10189;49.546;7.906;2023-04-06T06:27:22;26.67;;;18.77;;
20056;SDS011;10189;49.546;7.906;2023-04-06T06:29:48;27.77;;;21.30;;
20056;SDS011;10189;49.546;7.906;2023-04-06T06:32:15;35.10;;;30.17;;
20056;SDS011;10189;49.546;7.906;2023-04-06T06:34:42;21.58;;;17.88;;
20056;SDS011;10189;49.546;7.906;2023-04-06T06:37:09;22.48;;;15.65;;
20056;SDS011;10189;49.546;7.906;2023-04-06T06:39:36;20.55;;;15.77;;
20056;SDS011;10189;49.546;7.906;2023-04-06T06:42:02;27.50;;;18.40;;
20056;SDS011;10189;49.546;7.906;2023-04-06T06:45:01;24.25;;;16.48;;
20056;SDS011;10189;49.546;7.906;2023-04-06T06:47:27;18.42;;;14.63;;
20056;SDS011;10189;49.546;7.906;2023-04-06T06:49:53;14.77;;;11.73;;
20056;SDS011;10189;49.546;7.906;2023-04-06T06:52:19;14.95;;;11.80;;
20056;SDS011;10189;49.546;7.906;2023-04-06T06:54:45;16.15;;;12.80;;
20056;SDS011;10189;49.546;7.906;2023-04-06T06:57:11;15.55;;;11.68;;
20056;SDS011;10189;49.546;7.906;2023-04-06T06:59:37;27.17;;;17.90;;
20056;SDS011;10189;49.546;7.906;2023-04-06T07:02:03;24.83;;;18.20;;
20056;SDS011;10189;49.546;7.906;2023-04-06T07:04:30;23.35;;;15.73;;
20056;SDS011;10189;49.546;7.906;2023-04-06T07:06:56;17.00;;;11.98;;
20056;SDS011;10189;49.546;7.906;2023-04-06T07:09:22;14.40;;;11.77;;
20056;SDS011;10189;49.546;7.906;2023-04-06T07:11:48;17.67;;;12.43;;
20056;SDS011;10189;49.546;7.906;2023-04-06T07:14:15;17.05;;;11.98;;
20056;SDS011;10189;49.546;7.906;2023-04-06T07:16:41;14.95;;;11.23;;
20056;SDS011;10189;49.546;7.906;2023-04-06T07:19:09;13.43;;;11.77;;
20056;SDS011;10189;49.546;7.906;2023-04-06T07:21:36;11.88;;;9.95;;
20056;SDS011;10189;49.546;7.906;2023-04-06T07:24:02;16.33;;;13.05;;
20056;SDS011;10189;49.546;7.906;2023-04-06T07:26:28;13.82;;;10.93;;
20056;SDS011;10189;49.546;7.906;2023-04-06T07:28:54;15.93;;;10.60;;
20056;SDS011;10189;49.546;7.906;2023-04-06T07:31:22;13.50;;;10.63;;
20056;SDS011;10189;49.546;7.906;2023-04-06T07:33:48;14.82;;;11.32;;
20056;SDS011;10189;49.546;7.906;2023-04-06T07:36:16;17.27;;;12.50;;
20056;SDS011;10189;49.546;7.906;2023-04-06T07:38:42;17.17;;;13.38;;
20056;SDS011;10189;49.546;7.906;2023-04-06T07:41:12;17.05;;;13.85;;
20056;SDS011;10189;49.546;7.906;2023-04-06T07:43:38;15.35;;;12.57;;
20056;SDS011;10189;49.546;7.906;2023-04-06T07:46:06;13.57;;;10.75;;
20056;SDS011;10189;49.546;7.906;2023-04-06T07:48:32;12.82;;;10.95;;
20056;SDS011;10189;49.546;7.906;2023-04-06T07:51:02;14.15;;;10.90;;
20056;SDS011;10189;49.546;7.906;2023-04-06T07:53:32;16.50;;;10.45;;
20056;SDS011;10189;49.546;7.906;2023-04-06T07:55:58;16.08;;;10.35;;
20056;SDS011;10189;49.546;7.906;2023-04-06T07:58:24;20.58;;;14.73;;
20056;SDS011;10189;49.546;7.906;2023-04-06T08:00:51;31.55;;;21.15;;
20056;SDS011;10189;49.546;7.906;2023-04-06T08:03:17;18.08;;;12.90;;
20056;SDS011;10189;49.546;7.906;2023-04-06T08:05:45;18.95;;;13.63;;
20056;SDS011;10189;49.546;7.906;2023-04-06T08:08:11;21.30;;;14.50;;
20056;SDS011;10189;49.546;7.906;2023-04-06T08:10:37;17.75;;;13.18;;
20056;SDS011;10189;49.546;7.906;2023-04-06T08:13:03;15.10;;;11.35;;
20056;SDS011;10189;49.546;7.906;2023-04-06T08:15:29;14.07;;;9.23;;
20056;SDS011;10189;49.546;7.906;2023-04-06T08:17:55;13.73;;;9.18;;
20056;SDS011;10189;49.546;7.906;2023-04-06T08:20:22;14.48;;;9.57;;
20056;SDS011;10189;49.546;7.906;2023-04-06T08:22:48;16.75;;;8.95;;
20056;SDS011;10189;49.546;7.906;2023-04-06T08:25:14;13.75;;;9.00;;
20056;SDS011;10189;49.546;7.906;2023-04-06T08:27:40;13.68;;;9.18;;
20056;SDS011;10189;49.546;7.906;2023-04-06T08:30:06;14.32;;;9.63;;
20056;SDS011;10189;49.546;7.906;2023-04-06T08:32:32;14.90;;;10.68;;
20056;SDS011;10189;49.546;7.906;2023-04-06T08:34:58;14.80;;;9.95;;
20056;SDS011;10189;49.546;7.906;2023-04-06T08:37:24;13.52;;;9.25;;
20056;SDS011;10189;49.546;7.906;2023-04-06T08:39:50;11.52;;;8.32;;
20056;SDS011;10189;49.546;7.906;2023-04-06T08:42:19;18.48;;;9.77;;
20056;SDS011;10189;49.546;7.906;2023-04-06T08:44:47;28.45;;;19.45;;
20056;SDS011;10189;49.546;7.906;2023-04-06T08:47:16;29.98;;;21.27;;
20056;SDS011;10189;49.546;7.906;2023-04-06T08:49:42;14.73;;;8.80;;
20056;SDS011;10189;49.546;7.906;2023-04-06T08:52:10;17.50;;;9.32;;
20056;SDS011;10189;49.546;7.906;2023-04-06T08:54:37;15.82;;;9.25;;
20056;SDS011;10189;49.546;7.906;2023-04-06T08:57:04;15.23;;;9.18;;
20056;SDS011;10189;49.546;7.906;2023-04-06T08:59:33;14.18;;;8.68;;
20056;SDS011;10189;49.546;7.906;2023-04-06T09:02:03;16.85;;;8.90;;
20056;SDS011;10189;49.546;7.906;2023-04-06T09:04:33;12.48;;;8.80;;
20056;SDS011;10189;49.546;7.906;2023-04-06T09:07:01;13.80;;;9.52;;
20056;SDS011;10189;49.546;7.906;2023-04-06T09:09:27;12.95;;;8.45;;
20056;SDS011;10189;49.546;7.906;2023-04-06T09:11:53;11.90;;;8.50;;
20056;SDS011;10189;49.546;7.906;2023-04-06T09:14:41;14.52;;;8.98;;
20056;SDS011;10189;49.546;7.906;2023-04-06T09:17:07;13.18;;;8.90;;
20056;SDS011;10189;49.546;7.906;2023-04-06T09:19:33;12.30;;;8.35;;
20056;SDS011;10189;49.546;7.906;2023-04-06T09:22:03;13.15;;;8.65;;
20056;SDS011;10189;49.546;7.906;2023-04-06T09:24:42;14.10;;;8.90;;
20056;SDS011;10189;49.546;7.906;2023-04-06T09:27:14;16.60;;;10.63;;
20056;SDS011;10189;49.546;7.906;2023-04-06T09:29:40;13.25;;;8.73;;
20056;SDS011;10189;49.546;7.906;2023-04-06T09:32:09;11.30;;;8.05;;
20056;SDS011;10189;49.546;7.906;2023-04-06T09:34:39;12.95;;;8.88;;
20056;SDS011;10189;49.546;7.906;2023-04-06T09:37:15;13.40;;;9.18;;
20056;SDS011;10189;49.546;7.906;2023-04-06T09:39:43;12.38;;;8.48;;
20056;SDS011;10189;49.546;7.906;2023-04-06T09:42:11;12.52;;;9.10;;
20056;SDS011;10189;49.546;7.906;2023-04-06T09:44:49;12.18;;;8.73;;
20056;SDS011;10189;49.546;7.906;2023-04-06T09:47:15;13.80;;;9.30;;
20056;SDS011;10189;49.546;7.906;2023-04-06T09:49:44;14.85;;;8.70;;
20056;SDS011;10189;49.546;7.906;2023-04-06T09:52:12;13.77;;;9.05;;
20056;SDS011;10189;49.546;7.906;2023-04-06T09:54:40;12.73;;;9.07;;
20056;SDS011;10189;49.546;7.906;2023-04-06T10:07:48;12.05;;;8.45;;
20056;SDS011;10189;49.546;7.906;2023-04-06T10:10:21;13.55;;;9.25;;
20056;SDS011;10189;49.546;7.906;2023-04-06T10:12:47;14.65;;;9.48;;
20056;SDS011;10189;49.546;7.906;2023-04-06T10:15:15;12.00;;;8.52;;
20056;SDS011;10189;49.546;7.906;2023-04-06T10:17:42;14.05;;;8.93;;
20056;SDS011;10189;49.546;7.906;2023-04-06T10:20:10;13.52;;;9.02;;
20056;SDS011;10189;49.546;7.906;2023-04-06T10:23:19;11.38;;;7.95;;
20056;SDS011;10189;49.546;7.906;2023-04-06T10:25:56;14.20;;;9.10;;
20056;SDS011;10189;49.546;7.906;2023-04-06T10:28:25;11.65;;;8.52;;
20056;SDS011;10189;49.546;7.906;2023-04-06T10:30:58;12.50;;;9.35;;
20056;SDS011;10189;49.546;7.906;2023-04-06T10:33:26;13.02;;;8.30;;
20056;SDS011;10189;49.546;7.906;2023-04-06T10:35:53;12.82;;;9.13;;
20056;SDS011;10189;49.546;7.906;2023-04-06T10:38:39;12.18;;;8.05;;
20056;SDS011;10189;49.546;7.906;2023-04-06T10:41:10;11.85;;;7.75;;
20056;SDS011;10189;49.546;7.906;2023-04-06T10:43:38;11.32;;;8.50;;
20056;SDS011;10189;49.546;7.906;2023-04-06T10:46:06;12.25;;;8.57;;
20056;SDS011;10189;49.546;7.906;2023-04-06T10:48:41;10.77;;;8.13;;
20056;SDS011;10189;49.546;7.906;2023-04-06T10:51:15;11.60;;;8.07;;
20056;SDS011;10189;49.546;7.906;2023-04-06T10:53:44;12.57;;;7.53;;
20056;SDS011;10189;49.546;7.906;2023-04-06T10:56:17;10.48;;;7.70;;
20056;SDS011;10189;49.546;7.906;2023-04-06T10:58:47;11.52;;;8.00;;
20056;SDS011;10189;49.546;7.906;2023-04-06T11:01:18;11.15;;;8.20;;
20056;SDS011;10189;49.546;7.906;2023-04-06T11:03:47;13.48;;;8.45;;
20056;SDS011;10189;49.546;7.906;2023-04-06T11:06:22;9.93;;;8.23;;
20056;SDS011;10189;49.546;7.906;2023-04-06T11:08:52;9.60;;;7.20;;
20056;SDS011;10189;49.546;7.906;2023-04-06T11:11:20;11.02;;;7.47;;
20056;SDS011;10189;49.546;7.906;2023-04-06T11:16:22;8.32;;;6.82;;
20056;SDS011;10189;49.546;7.906;2023-04-06T11:18:58;9.93;;;6.97;;
20056;SDS011;10189;49.546;7.906;2023-04-06T11:21:39;10.30;;;7.03;;
20056;SDS011;10189;49.546;7.906;2023-04-06T11:26:41;9.02;;;6.80;;
20056;SDS011;10189;49.546;7.906;2023-04-06T11:29:10;10.90;;;7.88;;
20056;SDS011;10189;49.546;7.906;2023-04-06T11:31:39;10.25;;;7.63;;
20056;SDS011;10189;49.546;7.906;2023-04-06T11:34:10;10.70;;;7.40;;
20056;SDS011;10189;49.546;7.906;2023-04-06T11:36:45;9.35;;;6.82;;
20056;SDS011;10189;49.546;7.906;2023-04-06T11:39:13;11.32;;;8.20;;
20056;SDS011;10189;49.546;7.906;2023-04-06T11:41:48;11.52;;;7.18;;
20056;SDS011;10189;49.546;7.906;2023-04-06T11:44:26;9.02;;;6.90;;
20056;SDS011;10189;49.546;7.906;2023-04-06T11:47:03;10.20;;;6.82;;
20056;SDS011;10189;49.546;7.906;2023-04-06T11:49:32;11.43;;;7.00;;
20056;SDS011;10189;49.546;7.906;2023-04-06T11:52:01;10.02;;;7.30;;
20056;SDS011;10189;49.546;7.906;2023-04-06T11:54:40;10.15;;;6.95;;
20056;SDS011;10189;49.546;7.906;2023-04-06T11:57:07;7.47;;;6.50;;
20056;SDS011;10189;49.546;7.906;2023-04-06T11:59:34;15.40;;;9.98;;
20056;SDS011;10189;49.546;7.906;2023-04-06T12:02:01;9.48;;;6.68;;
20056;SDS011;10189;49.546;7.906;2023-04-06T12:04:28;8.73;;;6.38;;
20056;SDS011;10189;49.546;7.906;2023-04-06T12:06:54;9.55;;;7.15;;
20056;SDS011;10189;49.546;7.906;2023-04-06T12:09:21;8.45;;;6.85;;
20056;SDS011;10189;49.546;7.906;2023-04-06T12:11:47;8.80;;;6.57;;
20056;SDS011;10189;49.546;7.906;2023-04-06T12:14:13;8.23;;;6.72;;
20056;SDS011;10189;49.546;7.906;2023-04-06T12:16:39;11.00;;;6.75;;
20056;SDS011;10189;49.546;7.906;2023-04-06T12:19:05;9.73;;;7.05;;
20056;SDS011;10189;49.546;7.906;2023-04-06T12:21:31;9.77;;;7.00;;
20056;SDS011;10189;49.546;7.906;2023-04-06T12:24:00;9.50;;;7.45;;
20056;SDS011;10189;49.546;7.906;2023-04-06T12:26:26;9.77;;;7.15;;
20056;SDS011;10189;49.546;7.906;2023-04-06T12:28:53;9.02;;;7.55;;
20056;SDS011;10189;49.546;7.906;2023-04-06T12:31:20;9.70;;;6.78;;
20056;SDS011;10189;49.546;7.906;2023-04-06T12:33:48;10.20;;;7.50;;
20056;SDS011;10189;49.546;7.906;2023-04-06T12:36:15;9.00;;;7.10;;
20056;SDS011;10189;49.546;7.906;2023-04-06T12:38:45;9.85;;;7.63;;
20056;SDS011;10189;49.546;7.906;2023-04-06T12:41:15;9.27;;;6.85;;
20056;SDS011;10189;49.546;7.906;2023-04-06T12:43:45;9.85;;;7.03;;
20056;SDS011;10189;49.546;7.906;2023-04-06T12:46:11;10.35;;;7.30;;
20056;SDS011;10189;49.546;7.906;2023-04-06T12:48:37;11.52;;;8.27;;
20056;SDS011;10189;49.546;7.906;2023-04-06T12:51:04;11.63;;;7.82;;
20056;SDS011;10189;49.546;7.906;2023-04-06T12:53:31;10.25;;;7.57;;
20056;SDS011;10189;49.546;7.906;2023-04-06T12:55:59;10.88;;;7.85;;
20056;SDS011;10189;49.546;7.906;2023-04-06T12:58:26;12.85;;;8.27;;
20056;SDS011;10189;49.546;7.906;2023-04-06T13:00:53;9.00;;;7.47;;
20056;SDS011;10189;49.546;7.906;2023-04-06T13:03:21;9.65;;;6.82;;
20056;SDS011;10189;49.546;7.906;2023-04-06T13:05:48;9.00;;;6.68;;
20056;SDS011;10189;49.546;7.906;2023-04-06T13:08:16;10.07;;;6.97;;
20056;SDS011;10189;49.546;7.906;2023-04-06T13:15:42;9.30;;;7.40;;
20056;SDS011;10189;49.546;7.906;2023-04-06T13:18:10;11.77;;;8.38;;
20056;SDS011;10189;49.546;7.906;2023-04-06T13:20:36;12.18;;;7.90;;
20056;SDS011;10189;49.546;7.906;2023-04-06T13:23:02;9.63;;;7.38;;
20056;SDS011;10189;49.546;7.906;2023-04-06T13:25:28;9.65;;;7.55;;
20056;SDS011;10189;49.546;7.906;2023-04-06T13:27:54;12.65;;;8.30;;
20056;SDS011;10189;49.546;7.906;2023-04-06T13:30:20;10.40;;;7.82;;
20056;SDS011;10189;49.546;7.906;2023-04-06T13:32:46;10.30;;;7.93;;
20056;SDS011;10189;49.546;7.906;2023-04-06T13:35:12;10.35;;;7.70;;
20056;SDS011;10189;49.546;7.906;2023-04-06T13:37:38;9.90;;;7.95;;
20056;SDS011;10189;49.546;7.906;2023-04-06T13:40:05;10.45;;;8.25;;
20056;SDS011;10189;49.546;7.906;2023-04-06T13:42:32;11.02;;;8.55;;
20056;SDS011;10189;49.546;7.906;2023-04-06T13:45:00;11.75;;;8.65;;
20056;SDS011;10189;49.546;7.906;2023-04-06T13:47:26;12.02;;;8.65;;
20056;SDS011;10189;49.546;7.906;2023-04-06T13:49:52;11.00;;;8.32;;
20056;SDS011;10189;49.546;7.906;2023-04-06T13:52:20;11.45;;;9.00;;
20056;SDS011;10189;49.546;7.906;2023-04-06T13:54:46;10.93;;;8.50;;
20056;SDS011;10189;49.546;7.906;2023-04-06T13:57:12;10.85;;;8.20;;
20056;SDS011;10189;49.546;7.906;2023-04-06T13:59:38;13.20;;;9.25;;
20056;SDS011;10189;49.546;7.906;2023-04-06T14:02:06;9.77;;;8.10;;
20056;SDS011;10189;49.546;7.906;2023-04-06T14:04:34;10.40;;;8.02;;
20056;SDS011;10189;49.546;7.906;2023-04-06T14:07:01;10.90;;;7.38;;
20056;SDS011;10189;49.546;7.906;2023-04-06T14:09:28;9.68;;;7.45;;
20056;SDS011;10189;49.546;7.906;2023-04-06T14:11:55;10.65;;;8.10;;
20056;SDS011;10189;49.546;7.906;2023-04-06T14:14:22;12.00;;;7.65;;
20056;SDS011;10189;49.546;7.906;2023-04-06T14:16:48;9.60;;;6.90;;
20056;SDS011;10189;49.546;7.906;2023-04-06T14:19:14;11.27;;;7.53;;
20056;SDS011;10189;49.546;7.906;2023-04-06T14:21:46;9.63;;;7.28;;
20056;SDS011;10189;49.546;7.906;2023-04-06T14:24:15;11.45;;;7.70;;
20056;SDS011;10189;49.546;7.906;2023-04-06T14:26:43;10.30;;;7.68;;
20056;SDS011;10189;49.546;7.906;2023-04-06T14:29:09;10.43;;;7.80;;
20056;SDS011;10189;49.546;7.906;2023-04-06T14:31:35;8.50;;;6.22;;
20056;SDS011;10189;49.546;7.906;2023-04-06T14:34:02;6.95;;;5.20;;
20056;SDS011;10189;49.546;7.906;2023-04-06T14:36:30;11.02;;;5.93;;
20056;SDS011;10189;49.546;7.906;2023-04-06T14:39:05;11.93;;;5.65;;
20056;SDS011;10189;49.546;7.906;2023-04-06T14:41:32;8.55;;;6.18;;
20056;SDS011;10189;49.546;7.906;2023-04-06T14:44:00;7.03;;;5.68;;
20056;SDS011;10189;49.546;7.906;2023-04-06T14:46:26;7.43;;;5.72;;
20056;SDS011;10189;49.546;7.906;2023-04-06T14:48:58;8.82;;;6.63;;
20056;SDS011;10189;49.546;7.906;2023-04-06T14:51:25;7.85;;;6.13;;
20056;SDS011;10189;49.546;7.906;2023-04-06T14:53:53;7.82;;;6.55;;
20056;SDS011;10189;49.546;7.906;2023-04-06T14:56:23;9.00;;;5.93;;
20056;SDS011;10189;49.546;7.906;2023-04-06T14:58:50;9.07;;;5.70;;
20056;SDS011;10189;49.546;7.906;2023-04-06T15:01:19;8.35;;;4.85;;
20056;SDS011;10189;49.546;7.906;2023-04-06T15:03:46;6.60;;;4.95;;
20056;SDS011;10189;49.546;7.906;2023-04-06T15:06:12;8.40;;;5.03;;